sensor_id;sensor_type;location;lat;lon;timestamp;temperature;humidity
52295;DHT22;38243;53.212;6.574;2022-08-19T00:00:48;15.20;99.90
52295;DHT22;38243;53.212;6.574;2022-08-19T00:03:15;15.20;99.90
52295;DHT22;38243;53.212;6.574;2022-08-19T00:05:41;15.30;99.90
52295;DHT22;38243;53.212;6.574;2022-08-19T00:08:07;15.30;99.90
52295;DHT22;38243;53.212;6.574;2022-08-19T00:10:33;15.20;99.90
52295;DHT22;38243;53.212;6.574;2022-08-19T00:12:59;15.30;99.90
52295;DHT22;38243;53.212;6.574;2022-08-19T00:15:25;15.30;99.90
52295;DHT22;38243;53.212;6.574;2022-08-19T00:17:50;15.50;99.90
52295;DHT22;38243;53.212;6.574;2022-08-19T00:20:17;15.50;99.90
52295;DHT22;38243;53.212;6.574;2022-08-19T00:22:44;15.40;99.90
52295;DHT22;38243;53.212;6.574;2022-08-19T00:25:10;15.20;99.90
52295;DHT22;38243;53.212;6.574;2022-08-19T00:27:36;15.30;99.90
52295;DHT22;38243;53.212;6.574;2022-08-19T00:30:02;15.30;99.90
52295;DHT22;38243;53.212;6.574;2022-08-19T00:32:29;15.20;99.90
52295;DHT22;38243;53.212;6.574;2022-08-19T00:34:55;15.20;99.90
52295;DHT22;38243;53.212;6.574;2022-08-19T00:37:21;15.20;99.90
52295;DHT22;38243;53.212;6.574;2022-08-19T00:39:48;15.20;99.90
52295;DHT22;38243;53.212;6.574;2022-08-19T00:42:14;15.30;99.90
52295;DHT22;38243;53.212;6.574;2022-08-19T00:44:40;15.30;99.90
52295;DHT22;38243;53.212;6.574;2022-08-19T00:47:06;15.30;99.90
52295;DHT22;38243;53.212;6.574;2022-08-19T00:49:37;15.20;99.90
52295;DHT22;38243;53.212;6.574;2022-08-19T00:52:15;15.30;99.90
52295;DHT22;38243;53.212;6.574;2022-08-19T00:54:42;15.30;99.90
52295;DHT22;38243;53.212;6.574;2022-08-19T00:57:10;15.30;99.90
52295;DHT22;38243;53.212;6.574;2022-08-19T00:59:41;15.30;99.90
52295;DHT22;38243;53.212;6.574;2022-08-19T01:02:10;15.30;99.90
52295;DHT22;38243;53.212;6.574;2022-08-19T01:04:37;15.30;99.90
52295;DHT22;38243;53.212;6.574;2022-08-19T01:07:03;15.30;99.90
52295;DHT22;38243;53.212;6.574;2022-08-19T01:09:29;15.20;99.90
52295;DHT22;38243;53.212;6.574;2022-08-19T01:11:55;15.30;99.90
52295;DHT22;38243;53.212;6.574;2022-08-19T01:14:21;15.20;99.90
52295;DHT22;38243;53.212;6.574;2022-08-19T01:16:47;15.30;99.90
52295;DHT22;38243;53.212;6.574;2022-08-19T01:19:23;15.20;99.90
52295;DHT22;38243;53.212;6.574;2022-08-19T01:21:56;15.20;99.90
52295;DHT22;38243;53.212;6.574;2022-08-19T01:24:23;15.20;99.90
52295;DHT22;38243;53.212;6.574;2022-08-19T01:26:49;15.20;99.90
52295;DHT22;38243;53.212;6.574;2022-08-19T01:29:15;15.10;99.90
52295;DHT22;38243;53.212;6.574;2022-08-19T01:31:41;15.10;99.90
52295;DHT22;38243;53.212;6.574;2022-08-19T01:34:10;15.10;99.90
52295;DHT22;38243;53.212;6.574;2022-08-19T01:36:37;15.00;99.90
52295;DHT22;38243;53.212;6.574;2022-08-19T01:39:05;15.00;99.90
52295;DHT22;38243;53.212;6.574;2022-08-19T01:41:32;14.90;99.90
52295;DHT22;38243;53.212;6.574;2022-08-19T01:43:57;14.90;99.90
52295;DHT22;38243;53.212;6.574;2022-08-19T01:46:23;14.80;99.90
52295;DHT22;38243;53.212;6.574;2022-08-19T01:48:52;14.90;99.90
52295;DHT22;38243;53.212;6.574;2022-08-19T01:51:18;14.90;99.90
52295;DHT22;38243;53.212;6.574;2022-08-19T01:53:46;14.80;99.90
52295;DHT22;38243;53.212;6.574;2022-08-19T01:56:12;14.80;99.90
52295;DHT22;38243;53.212;6.574;2022-08-19T01:58:41;14.80;99.90
52295;DHT22;38243;53.212;6.574;2022-08-19T02:01:08;14.80;99.90
52295;DHT22;38243;53.212;6.574;2022-08-19T02:03:35;14.80;99.90
52295;DHT22;38243;53.212;6.574;2022-08-19T02:06:02;14.80;99.90
52295;DHT22;38243;53.212;6.574;2022-08-19T02:08:29;14.70;99.90
52295;DHT22;38243;53.212;6.574;2022-08-19T02:10:55;14.80;99.90
52295;DHT22;38243;53.212;6.574;2022-08-19T02:13:21;14.80;99.90
52295;DHT22;38243;53.212;6.574;2022-08-19T02:15:47;14.70;99.90
52295;DHT22;38243;53.212;6.574;2022-08-19T02:18:13;14.70;99.90
52295;DHT22;38243;53.212;6.574;2022-08-19T02:20:40;14.70;99.90
52295;DHT22;38243;53.212;6.574;2022-08-19T02:23:07;14.70;99.90
52295;DHT22;38243;53.212;6.574;2022-08-19T02:25:33;14.60;99.90
52295;DHT22;38243;53.212;6.574;2022-08-19T02:27:58;14.70;99.90
52295;DHT22;38243;53.212;6.574;2022-08-19T02:30:27;14.70;99.90
52295;DHT22;38243;53.212;6.574;2022-08-19T02:32:53;14.60;99.90
52295;DHT22;38243;53.212;6.574;2022-08-19T02:35:19;14.60;99.90
52295;DHT22;38243;53.212;6.574;2022-08-19T02:37:45;14.60;99.90
52295;DHT22;38243;53.212;6.574;2022-08-19T02:40:30;14.60;99.90
52295;DHT22;38243;53.212;6.574;2022-08-19T02:43:00;14.60;99.90
52295;DHT22;38243;53.212;6.574;2022-08-19T02:45:26;14.60;99.90
52295;DHT22;38243;53.212;6.574;2022-08-19T02:47:52;14.60;99.90
52295;DHT22;38243;53.212;6.574;2022-08-19T02:50:18;14.60;99.90
52295;DHT22;38243;53.212;6.574;2022-08-19T02:52:43;14.50;99.90
52295;DHT22;38243;53.212;6.574;2022-08-19T02:55:11;14.60;99.90
52295;DHT22;38243;53.212;6.574;2022-08-19T02:57:37;14.60;99.90
52295;DHT22;38243;53.212;6.574;2022-08-19T03:00:06;14.50;99.90
52295;DHT22;38243;53.212;6.574;2022-08-19T03:02:33;14.40;99.90
52295;DHT22;38243;53.212;6.574;2022-08-19T03:04:58;14.40;99.90
52295;DHT22;38243;53.212;6.574;2022-08-19T03:07:24;14.40;99.90
52295;DHT22;38243;53.212;6.574;2022-08-19T03:09:50;14.50;99.90
52295;DHT22;38243;53.212;6.574;2022-08-19T03:12:16;14.40;99.90
52295;DHT22;38243;53.212;6.574;2022-08-19T03:14:41;14.40;99.90
52295;DHT22;38243;53.212;6.574;2022-08-19T03:17:07;14.40;99.90
52295;DHT22;38243;53.212;6.574;2022-08-19T03:19:33;14.40;99.90
52295;DHT22;38243;53.212;6.574;2022-08-19T03:21:58;14.40;99.90
52295;DHT22;38243;53.212;6.574;2022-08-19T03:24:25;14.30;99.90
52295;DHT22;38243;53.212;6.574;2022-08-19T03:26:51;14.20;99.90
52295;DHT22;38243;53.212;6.574;2022-08-19T03:29:18;14.30;99.90
52295;DHT22;38243;53.212;6.574;2022-08-19T03:31:44;14.20;99.90
52295;DHT22;38243;53.212;6.574;2022-08-19T03:34:10;14.10;99.90
52295;DHT22;38243;53.212;6.574;2022-08-19T03:36:37;14.30;99.90
52295;DHT22;38243;53.212;6.574;2022-08-19T03:39:03;14.20;99.90
52295;DHT22;38243;53.212;6.574;2022-08-19T03:41:30;14.20;99.90
52295;DHT22;38243;53.212;6.574;2022-08-19T03:43:57;14.30;99.90
52295;DHT22;38243;53.212;6.574;2022-08-19T03:46:26;14.30;99.90
52295;DHT22;38243;53.212;6.574;2022-08-19T03:48:53;14.30;99.90
52295;DHT22;38243;53.212;6.574;2022-08-19T03:51:20;14.20;99.90
52295;DHT22;38243;53.212;6.574;2022-08-19T03:53:46;14.30;99.90
52295;DHT22;38243;53.212;6.574;2022-08-19T03:56:12;14.40;99.90
52295;DHT22;38243;53.212;6.574;2022-08-19T03:58:38;14.40;99.90
52295;DHT22;38243;53.212;6.574;2022-08-19T04:01:11;14.30;99.90
52295;DHT22;38243;53.212;6.574;2022-08-19T04:03:40;14.30;99.90
52295;DHT22;38243;53.212;6.574;2022-08-19T04:06:10;14.40;99.90
52295;DHT22;38243;53.212;6.574;2022-08-19T04:08:36;14.40;99.90
52295;DHT22;38243;53.212;6.574;2022-08-19T04:11:05;14.40;99.90
52295;DHT22;38243;53.212;6.574;2022-08-19T04:13:31;14.40;99.90
52295;DHT22;38243;53.212;6.574;2022-08-19T04:15:57;14.40;99.90
52295;DHT22;38243;53.212;6.574;2022-08-19T04:18:22;14.40;99.90
52295;DHT22;38243;53.212;6.574;2022-08-19T04:20:49;14.30;99.90
52295;DHT22;38243;53.212;6.574;2022-08-19T04:23:15;14.30;99.90
52295;DHT22;38243;53.212;6.574;2022-08-19T04:25:42;14.20;99.90
52295;DHT22;38243;53.212;6.574;2022-08-19T04:28:10;14.20;99.90
52295;DHT22;38243;53.212;6.574;2022-08-19T04:30:43;14.20;99.90
52295;DHT22;38243;53.212;6.574;2022-08-19T04:33:09;14.30;99.90
52295;DHT22;38243;53.212;6.574;2022-08-19T04:35:44;14.20;99.90
52295;DHT22;38243;53.212;6.574;2022-08-19T04:38:11;14.30;99.90
52295;DHT22;38243;53.212;6.574;2022-08-19T04:40:41;13.50;99.90
52295;DHT22;38243;53.212;6.574;2022-08-19T04:43:26;14.50;99.90
52295;DHT22;38243;53.212;6.574;2022-08-19T04:45:51;14.50;99.90
52295;DHT22;38243;53.212;6.574;2022-08-19T04:48:17;14.40;99.90
52295;DHT22;38243;53.212;6.574;2022-08-19T04:50:58;14.50;99.90
52295;DHT22;38243;53.212;6.574;2022-08-19T04:53:31;14.40;99.90
52295;DHT22;38243;53.212;6.574;2022-08-19T04:55:58;14.40;99.90
52295;DHT22;38243;53.212;6.574;2022-08-19T04:58:24;14.50;99.90
52295;DHT22;38243;53.212;6.574;2022-08-19T05:00:50;14.60;99.90
52295;DHT22;38243;53.212;6.574;2022-08-19T05:03:16;14.60;99.90
52295;DHT22;38243;53.212;6.574;2022-08-19T05:05:43;14.60;99.90
52295;DHT22;38243;53.212;6.574;2022-08-19T05:08:09;14.70;99.90
52295;DHT22;38243;53.212;6.574;2022-08-19T05:10:35;14.80;99.90
52295;DHT22;38243;53.212;6.574;2022-08-19T05:13:01;15.00;99.90
52295;DHT22;38243;53.212;6.574;2022-08-19T05:15:27;15.10;99.90
52295;DHT22;38243;53.212;6.574;2022-08-19T05:17:52;15.30;99.90
52295;DHT22;38243;53.212;6.574;2022-08-19T05:20:40;15.60;99.90
52295;DHT22;38243;53.212;6.574;2022-08-19T05:23:24;15.90;99.90
52295;DHT22;38243;53.212;6.574;2022-08-19T05:25:50;16.30;99.90
52295;DHT22;38243;53.212;6.574;2022-08-19T05:28:19;16.50;99.90
52295;DHT22;38243;53.212;6.574;2022-08-19T05:30:45;16.50;99.90
52295;DHT22;38243;53.212;6.574;2022-08-19T05:33:11;16.50;99.90
52295;DHT22;38243;53.212;6.574;2022-08-19T05:35:38;16.70;99.90
52295;DHT22;38243;53.212;6.574;2022-08-19T05:38:05;16.90;99.90
52295;DHT22;38243;53.212;6.574;2022-08-19T05:40:33;17.10;99.90
52295;DHT22;38243;53.212;6.574;2022-08-19T05:42:59;17.20;99.90
52295;DHT22;38243;53.212;6.574;2022-08-19T05:45:24;17.40;99.90
52295;DHT22;38243;53.212;6.574;2022-08-19T05:47:50;17.60;99.90
52295;DHT22;38243;53.212;6.574;2022-08-19T05:50:16;18.00;99.90
52295;DHT22;38243;53.212;6.574;2022-08-19T05:52:42;18.10;99.90
52295;DHT22;38243;53.212;6.574;2022-08-19T05:55:11;18.10;99.90
52295;DHT22;38243;53.212;6.574;2022-08-19T05:57:37;18.30;99.90
52295;DHT22;38243;53.212;6.574;2022-08-19T06:00:04;18.40;99.90
52295;DHT22;38243;53.212;6.574;2022-08-19T06:02:33;18.30;99.90
52295;DHT22;38243;53.212;6.574;2022-08-19T06:05:01;18.50;99.90
52295;DHT22;38243;53.212;6.574;2022-08-19T06:07:28;18.60;99.90
52295;DHT22;38243;53.212;6.574;2022-08-19T06:09:57;19.00;99.90
52295;DHT22;38243;53.212;6.574;2022-08-19T06:12:35;19.00;99.90
52295;DHT22;38243;53.212;6.574;2022-08-19T06:15:04;19.20;99.90
52295;DHT22;38243;53.212;6.574;2022-08-19T06:17:30;19.50;99.90
52295;DHT22;38243;53.212;6.574;2022-08-19T06:19:56;20.00;99.90
52295;DHT22;38243;53.212;6.574;2022-08-19T06:22:23;20.20;99.90
52295;DHT22;38243;53.212;6.574;2022-08-19T06:24:49;20.10;99.90
52295;DHT22;38243;53.212;6.574;2022-08-19T06:27:18;20.20;99.90
52295;DHT22;38243;53.212;6.574;2022-08-19T06:29:43;20.40;99.90
52295;DHT22;38243;53.212;6.574;2022-08-19T06:32:10;20.80;99.90
52295;DHT22;38243;53.212;6.574;2022-08-19T06:34:36;20.60;99.90
52295;DHT22;38243;53.212;6.574;2022-08-19T06:37:02;20.90;99.90
52295;DHT22;38243;53.212;6.574;2022-08-19T06:39:30;21.20;99.90
52295;DHT22;38243;53.212;6.574;2022-08-19T06:41:58;21.50;99.90
52295;DHT22;38243;53.212;6.574;2022-08-19T06:44:25;21.70;99.90
52295;DHT22;38243;53.212;6.574;2022-08-19T06:46:51;21.60;99.90
52295;DHT22;38243;53.212;6.574;2022-08-19T06:49:17;21.50;99.90
52295;DHT22;38243;53.212;6.574;2022-08-19T06:51:43;21.50;99.90
52295;DHT22;38243;53.212;6.574;2022-08-19T06:54:10;21.70;99.90
52295;DHT22;38243;53.212;6.574;2022-08-19T06:56:36;21.90;99.90
52295;DHT22;38243;53.212;6.574;2022-08-19T06:59:03;22.00;99.90
52295;DHT22;38243;53.212;6.574;2022-08-19T07:01:30;22.50;99.90
52295;DHT22;38243;53.212;6.574;2022-08-19T07:03:55;22.30;99.90
52295;DHT22;38243;53.212;6.574;2022-08-19T07:06:22;22.40;99.90
52295;DHT22;38243;53.212;6.574;2022-08-19T07:08:48;22.70;99.90
52295;DHT22;38243;53.212;6.574;2022-08-19T07:11:15;22.90;99.90
52295;DHT22;38243;53.212;6.574;2022-08-19T07:13:40;22.90;99.90
52295;DHT22;38243;53.212;6.574;2022-08-19T07:16:10;23.20;99.90
52295;DHT22;38243;53.212;6.574;2022-08-19T07:18:37;23.40;99.90
52295;DHT22;38243;53.212;6.574;2022-08-19T07:21:07;24.10;99.90
52295;DHT22;38243;53.212;6.574;2022-08-19T07:23:35;24.50;99.90
52295;DHT22;38243;53.212;6.574;2022-08-19T07:26:45;24.50;99.90
52295;DHT22;38243;53.212;6.574;2022-08-19T07:28:51;24.10;99.90
52295;DHT22;38243;53.212;6.574;2022-08-19T07:31:18;24.70;99.90
52295;DHT22;38243;53.212;6.574;2022-08-19T07:33:45;25.30;99.90
52295;DHT22;38243;53.212;6.574;2022-08-19T07:36:13;25.50;99.90
52295;DHT22;38243;53.212;6.574;2022-08-19T07:38:43;25.70;99.90
52295;DHT22;38243;53.212;6.574;2022-08-19T07:41:09;25.00;99.90
52295;DHT22;38243;53.212;6.574;2022-08-19T07:43:35;25.10;99.90
52295;DHT22;38243;53.212;6.574;2022-08-19T07:46:01;25.60;99.90
52295;DHT22;38243;53.212;6.574;2022-08-19T07:48:27;25.90;99.90
52295;DHT22;38243;53.212;6.574;2022-08-19T07:50:53;27.70;96.50
52295;DHT22;38243;53.212;6.574;2022-08-19T07:53:21;29.60;91.80
52295;DHT22;38243;53.212;6.574;2022-08-19T07:55:46;28.70;86.70
52295;DHT22;38243;53.212;6.574;2022-08-19T07:58:13;30.80;82.90
52295;DHT22;38243;53.212;6.574;2022-08-19T08:00:39;29.90;79.70
52295;DHT22;38243;53.212;6.574;2022-08-19T08:03:05;28.50;83.60
52295;DHT22;38243;53.212;6.574;2022-08-19T08:05:31;28.90;83.60
52295;DHT22;38243;53.212;6.574;2022-08-19T08:08:15;29.90;80.80
52295;DHT22;38243;53.212;6.574;2022-08-19T08:10:59;28.30;81.00
52295;DHT22;38243;53.212;6.574;2022-08-19T08:13:25;28.80;83.20
52295;DHT22;38243;53.212;6.574;2022-08-19T08:15:51;29.60;80.20
52295;DHT22;38243;53.212;6.574;2022-08-19T08:18:17;31.80;74.80
52295;DHT22;38243;53.212;6.574;2022-08-19T08:20:44;32.70;70.90
52295;DHT22;38243;53.212;6.574;2022-08-19T08:23:09;32.30;69.60
52295;DHT22;38243;53.212;6.574;2022-08-19T08:25:51;33.10;68.50
52295;DHT22;38243;53.212;6.574;2022-08-19T08:28:17;33.80;65.60
52295;DHT22;38243;53.212;6.574;2022-08-19T08:30:43;32.90;63.20
52295;DHT22;38243;53.212;6.574;2022-08-19T08:33:11;33.60;63.30
52295;DHT22;38243;53.212;6.574;2022-08-19T08:35:36;31.80;62.80
52295;DHT22;38243;53.212;6.574;2022-08-19T08:38:02;33.80;63.40
52295;DHT22;38243;53.212;6.574;2022-08-19T08:43:07;34.50;60.20
52295;DHT22;38243;53.212;6.574;2022-08-19T08:45:34;33.50;60.20
52295;DHT22;38243;53.212;6.574;2022-08-19T08:48:01;34.60;60.00
52295;DHT22;38243;53.212;6.574;2022-08-19T08:50:35;34.20;61.10
52295;DHT22;38243;53.212;6.574;2022-08-19T08:53:02;34.10;60.10
52295;DHT22;38243;53.212;6.574;2022-08-19T08:55:30;34.60;59.70
52295;DHT22;38243;53.212;6.574;2022-08-19T09:00:30;34.30;59.20
52295;DHT22;38243;53.212;6.574;2022-08-19T09:02:56;34.90;58.60
52295;DHT22;38243;53.212;6.574;2022-08-19T09:05:23;35.10;58.50
52295;DHT22;38243;53.212;6.574;2022-08-19T09:10:34;35.70;58.10
52295;DHT22;38243;53.212;6.574;2022-08-19T09:15:32;34.30;60.80
52295;DHT22;38243;53.212;6.574;2022-08-19T09:18:01;35.50;58.40
52295;DHT22;38243;53.212;6.574;2022-08-19T09:20:27;34.70;57.00
52295;DHT22;38243;53.212;6.574;2022-08-19T09:22:53;34.50;56.70
52295;DHT22;38243;53.212;6.574;2022-08-19T09:25:19;36.00;56.70
52295;DHT22;38243;53.212;6.574;2022-08-19T09:27:49;35.10;56.60
52295;DHT22;38243;53.212;6.574;2022-08-19T09:30:17;35.00;55.80
52295;DHT22;38243;53.212;6.574;2022-08-19T09:32:43;35.20;56.10
52295;DHT22;38243;53.212;6.574;2022-08-19T09:35:09;33.70;58.20
52295;DHT22;38243;53.212;6.574;2022-08-19T09:37:35;32.00;60.90
52295;DHT22;38243;53.212;6.574;2022-08-19T09:40:01;30.80;63.40
52295;DHT22;38243;53.212;6.574;2022-08-19T09:42:27;30.50;64.10
52295;DHT22;38243;53.212;6.574;2022-08-19T09:44:52;29.90;65.40
52295;DHT22;38243;53.212;6.574;2022-08-19T09:47:18;30.70;65.10
52295;DHT22;38243;53.212;6.574;2022-08-19T09:49:43;30.60;64.60
52295;DHT22;38243;53.212;6.574;2022-08-19T09:52:09;30.20;65.10
52295;DHT22;38243;53.212;6.574;2022-08-19T09:54:36;32.30;63.50
52295;DHT22;38243;53.212;6.574;2022-08-19T09:57:02;33.20;61.10
52295;DHT22;38243;53.212;6.574;2022-08-19T09:59:28;33.80;58.20
52295;DHT22;38243;53.212;6.574;2022-08-19T10:01:54;31.30;62.00
52295;DHT22;38243;53.212;6.574;2022-08-19T10:04:20;29.90;65.30
52295;DHT22;38243;53.212;6.574;2022-08-19T10:06:46;32.50;62.80
52295;DHT22;38243;53.212;6.574;2022-08-19T10:09:14;32.70;60.40
52295;DHT22;38243;53.212;6.574;2022-08-19T10:11:40;31.30;63.50
52295;DHT22;38243;53.212;6.574;2022-08-19T10:14:06;33.10;61.60
52295;DHT22;38243;53.212;6.574;2022-08-19T10:16:32;30.90;61.60
52295;DHT22;38243;53.212;6.574;2022-08-19T10:18:58;32.40;62.20
52295;DHT22;38243;53.212;6.574;2022-08-19T10:21:26;33.40;62.10
52295;DHT22;38243;53.212;6.574;2022-08-19T10:23:53;31.60;63.20
52295;DHT22;38243;53.212;6.574;2022-08-19T10:26:21;32.00;63.40
52295;DHT22;38243;53.212;6.574;2022-08-19T10:28:47;30.00;64.40
52295;DHT22;38243;53.212;6.574;2022-08-19T10:31:15;28.70;66.40
52295;DHT22;38243;53.212;6.574;2022-08-19T10:33:40;27.90;69.20
52295;DHT22;38243;53.212;6.574;2022-08-19T10:36:08;28.90;69.90
52295;DHT22;38243;53.212;6.574;2022-08-19T10:38:34;29.20;70.30
52295;DHT22;38243;53.212;6.574;2022-08-19T10:41:06;29.80;68.00
52295;DHT22;38243;53.212;6.574;2022-08-19T10:43:32;29.70;67.90
52295;DHT22;38243;53.212;6.574;2022-08-19T10:45:59;30.20;67.50
52295;DHT22;38243;53.212;6.574;2022-08-19T10:48:25;30.10;68.90
52295;DHT22;38243;53.212;6.574;2022-08-19T10:50:50;30.40;68.00
52295;DHT22;38243;53.212;6.574;2022-08-19T10:53:35;31.00;66.10
52295;DHT22;38243;53.212;6.574;2022-08-19T10:56:00;29.70;65.70
52295;DHT22;38243;53.212;6.574;2022-08-19T10:58:44;30.50;68.30
52295;DHT22;38243;53.212;6.574;2022-08-19T11:01:10;30.80;66.40
52295;DHT22;38243;53.212;6.574;2022-08-19T11:03:36;30.40;67.30
52295;DHT22;38243;53.212;6.574;2022-08-19T11:06:03;30.90;66.70
52295;DHT22;38243;53.212;6.574;2022-08-19T11:08:29;30.80;66.90
52295;DHT22;38243;53.212;6.574;2022-08-19T11:10:58;30.90;66.40
52295;DHT22;38243;53.212;6.574;2022-08-19T11:13:26;31.30;65.00
52295;DHT22;38243;53.212;6.574;2022-08-19T11:15:56;30.90;65.30
52295;DHT22;38243;53.212;6.574;2022-08-19T11:18:22;31.60;65.40
52295;DHT22;38243;53.212;6.574;2022-08-19T11:20:47;31.70;64.30
52295;DHT22;38243;53.212;6.574;2022-08-19T11:23:14;31.50;63.80
52295;DHT22;38243;53.212;6.574;2022-08-19T11:25:39;31.10;63.70
52295;DHT22;38243;53.212;6.574;2022-08-19T11:28:05;31.20;64.90
52295;DHT22;38243;53.212;6.574;2022-08-19T11:30:31;31.50;63.30
52295;DHT22;38243;53.212;6.574;2022-08-19T11:32:58;29.90;65.80
52295;DHT22;38243;53.212;6.574;2022-08-19T11:35:26;29.40;67.40
52295;DHT22;38243;53.212;6.574;2022-08-19T11:37:51;27.60;70.90
52295;DHT22;38243;53.212;6.574;2022-08-19T11:40:17;29.00;69.30
52295;DHT22;38243;53.212;6.574;2022-08-19T11:42:43;29.10;69.10
52295;DHT22;38243;53.212;6.574;2022-08-19T11:45:25;28.70;68.60
52295;DHT22;38243;53.212;6.574;2022-08-19T11:47:51;27.20;69.30
52295;DHT22;38243;53.212;6.574;2022-08-19T11:50:16;27.40;72.00
52295;DHT22;38243;53.212;6.574;2022-08-19T11:52:43;27.20;72.40
52295;DHT22;38243;53.212;6.574;2022-08-19T11:55:11;27.20;74.50
52295;DHT22;38243;53.212;6.574;2022-08-19T11:57:37;26.50;77.00
52295;DHT22;38243;53.212;6.574;2022-08-19T12:00:03;26.40;79.80
52295;DHT22;38243;53.212;6.574;2022-08-19T12:02:31;27.00;78.60
52295;DHT22;38243;53.212;6.574;2022-08-19T12:04:57;27.50;77.50
52295;DHT22;38243;53.212;6.574;2022-08-19T12:07:22;27.70;78.60
52295;DHT22;38243;53.212;6.574;2022-08-19T12:09:48;27.80;77.10
52295;DHT22;38243;53.212;6.574;2022-08-19T12:12:14;28.00;75.00
52295;DHT22;38243;53.212;6.574;2022-08-19T12:14:39;27.20;76.80
52295;DHT22;38243;53.212;6.574;2022-08-19T12:17:05;27.60;77.30
52295;DHT22;38243;53.212;6.574;2022-08-19T12:19:32;28.00;75.70
52295;DHT22;38243;53.212;6.574;2022-08-19T12:21:59;27.50;76.70
52295;DHT22;38243;53.212;6.574;2022-08-19T12:24:26;27.40;76.00
52295;DHT22;38243;53.212;6.574;2022-08-19T12:26:52;27.50;77.80
52295;DHT22;38243;53.212;6.574;2022-08-19T12:29:23;28.00;76.60
52295;DHT22;38243;53.212;6.574;2022-08-19T12:31:49;27.80;75.50
52295;DHT22;38243;53.212;6.574;2022-08-19T12:34:15;27.90;76.00
52295;DHT22;38243;53.212;6.574;2022-08-19T12:36:41;28.00;74.90
52295;DHT22;38243;53.212;6.574;2022-08-19T12:39:06;27.80;75.80
52295;DHT22;38243;53.212;6.574;2022-08-19T12:41:33;27.90;76.30
52295;DHT22;38243;53.212;6.574;2022-08-19T12:43:59;27.00;76.00
52295;DHT22;38243;53.212;6.574;2022-08-19T12:46:24;26.90;78.30
52295;DHT22;38243;53.212;6.574;2022-08-19T12:48:50;27.70;78.00
52295;DHT22;38243;53.212;6.574;2022-08-19T12:51:17;27.70;78.20
52295;DHT22;38243;53.212;6.574;2022-08-19T12:53:45;27.80;77.40
52295;DHT22;38243;53.212;6.574;2022-08-19T12:56:11;27.60;77.20
52295;DHT22;38243;53.212;6.574;2022-08-19T12:58:38;27.20;76.50
52295;DHT22;38243;53.212;6.574;2022-08-19T13:01:08;27.40;76.80
52295;DHT22;38243;53.212;6.574;2022-08-19T13:03:33;28.00;76.60
52295;DHT22;38243;53.212;6.574;2022-08-19T13:05:59;27.70;76.00
52295;DHT22;38243;53.212;6.574;2022-08-19T13:08:24;27.90;76.80
52295;DHT22;38243;53.212;6.574;2022-08-19T13:10:50;27.70;77.10
52295;DHT22;38243;53.212;6.574;2022-08-19T13:13:16;27.60;78.50
52295;DHT22;38243;53.212;6.574;2022-08-19T13:15:42;27.50;79.20
52295;DHT22;38243;53.212;6.574;2022-08-19T13:18:10;27.10;81.20
52295;DHT22;38243;53.212;6.574;2022-08-19T13:20:36;27.20;81.00
52295;DHT22;38243;53.212;6.574;2022-08-19T13:23:02;27.50;80.70
52295;DHT22;38243;53.212;6.574;2022-08-19T13:25:29;27.60;81.20
52295;DHT22;38243;53.212;6.574;2022-08-19T13:27:54;28.60;80.10
52295;DHT22;38243;53.212;6.574;2022-08-19T13:30:21;29.00;77.60
52295;DHT22;38243;53.212;6.574;2022-08-19T13:33:05;29.20;77.40
52295;DHT22;38243;53.212;6.574;2022-08-19T13:35:58;29.40;76.50
52295;DHT22;38243;53.212;6.574;2022-08-19T13:38:26;29.00;77.00
52295;DHT22;38243;53.212;6.574;2022-08-19T13:40:52;28.00;80.10
52295;DHT22;38243;53.212;6.574;2022-08-19T13:43:19;27.70;82.30
52295;DHT22;38243;53.212;6.574;2022-08-19T13:45:47;27.60;83.70
52295;DHT22;38243;53.212;6.574;2022-08-19T13:48:13;27.40;83.30
52295;DHT22;38243;53.212;6.574;2022-08-19T13:50:43;27.20;82.20
52295;DHT22;38243;53.212;6.574;2022-08-19T13:53:10;27.00;83.30
52295;DHT22;38243;53.212;6.574;2022-08-19T13:55:42;27.00;84.60
52295;DHT22;38243;53.212;6.574;2022-08-19T13:58:09;26.80;85.60
52295;DHT22;38243;53.212;6.574;2022-08-19T14:00:37;26.30;88.30
52295;DHT22;38243;53.212;6.574;2022-08-19T14:03:02;26.60;88.60
52295;DHT22;38243;53.212;6.574;2022-08-19T14:05:28;26.40;88.20
52295;DHT22;38243;53.212;6.574;2022-08-19T14:07:54;26.20;89.40
52295;DHT22;38243;53.212;6.574;2022-08-19T14:10:20;26.10;90.20
52295;DHT22;38243;53.212;6.574;2022-08-19T14:12:47;26.00;90.00
52295;DHT22;38243;53.212;6.574;2022-08-19T14:15:13;26.30;89.70
52295;DHT22;38243;53.212;6.574;2022-08-19T14:17:39;26.20;87.60
52295;DHT22;38243;53.212;6.574;2022-08-19T14:20:06;25.90;90.40
52295;DHT22;38243;53.212;6.574;2022-08-19T14:22:34;26.00;90.70
52295;DHT22;38243;53.212;6.574;2022-08-19T14:25:00;25.90;91.30
52295;DHT22;38243;53.212;6.574;2022-08-19T14:27:26;25.70;92.30
52295;DHT22;38243;53.212;6.574;2022-08-19T14:29:52;25.80;92.20
52295;DHT22;38243;53.212;6.574;2022-08-19T14:32:18;25.70;92.80
52295;DHT22;38243;53.212;6.574;2022-08-19T14:34:43;25.70;93.50
52295;DHT22;38243;53.212;6.574;2022-08-19T14:37:13;25.60;94.70
52295;DHT22;38243;53.212;6.574;2022-08-19T14:39:41;25.70;94.80
52295;DHT22;38243;53.212;6.574;2022-08-19T14:42:07;25.70;95.20
52295;DHT22;38243;53.212;6.574;2022-08-19T14:44:33;26.00;94.30
52295;DHT22;38243;53.212;6.574;2022-08-19T14:46:59;26.00;94.50
52295;DHT22;38243;53.212;6.574;2022-08-19T14:49:25;25.90;95.20
52295;DHT22;38243;53.212;6.574;2022-08-19T14:51:50;25.90;95.00
52295;DHT22;38243;53.212;6.574;2022-08-19T14:54:16;25.90;95.20
52295;DHT22;38243;53.212;6.574;2022-08-19T14:56:42;26.00;95.10
52295;DHT22;38243;53.212;6.574;2022-08-19T14:59:08;25.90;96.40
52295;DHT22;38243;53.212;6.574;2022-08-19T15:01:34;25.80;96.70
52295;DHT22;38243;53.212;6.574;2022-08-19T15:04:00;25.80;98.50
52295;DHT22;38243;53.212;6.574;2022-08-19T15:06:26;25.90;98.60
52295;DHT22;38243;53.212;6.574;2022-08-19T15:08:52;26.10;97.30
52295;DHT22;38243;53.212;6.574;2022-08-19T15:11:19;26.30;96.60
52295;DHT22;38243;53.212;6.574;2022-08-19T15:13:46;26.20;96.40
52295;DHT22;38243;53.212;6.574;2022-08-19T15:16:12;26.20;95.90
52295;DHT22;38243;53.212;6.574;2022-08-19T15:18:43;26.20;95.80
52295;DHT22;38243;53.212;6.574;2022-08-19T15:21:11;26.20;97.00
52295;DHT22;38243;53.212;6.574;2022-08-19T15:23:41;26.00;96.40
52295;DHT22;38243;53.212;6.574;2022-08-19T15:26:07;26.00;96.10
52295;DHT22;38243;53.212;6.574;2022-08-19T15:28:34;26.20;95.90
52295;DHT22;38243;53.212;6.574;2022-08-19T15:30:59;26.10;95.80
52295;DHT22;38243;53.212;6.574;2022-08-19T15:33:26;25.90;95.80
52295;DHT22;38243;53.212;6.574;2022-08-19T15:35:52;25.80;95.30
52295;DHT22;38243;53.212;6.574;2022-08-19T15:38:19;25.90;95.20
52295;DHT22;38243;53.212;6.574;2022-08-19T15:40:46;26.00;95.40